Latest Coastal Weather Observations for Wilsons Promontory

IDT60701

Issued at 7:06 pm EDT Wednesday 1 April 2015 (issued every 10 minutes, with the page automatically refreshed every 10 minutes)

About coastal observations | Map of coastal stations | Coastal observations for TAS | Marine services | Other Formats
Station Details ID: 085096 Name: WILSONS PROMONTORY LIGHTHOUSE Lat: -39.13 Lon: 146.42 Height: 95.0 m
Data from the previous 72 hours. | See also: Recent months at Wilsons Promontory
Date/Time
EDT
Temp

°C
Wind Pressure Rain
since 9am
mm
Weather Cloud Vis
km
Sea
Height
m
Swell
Dir
 
Speed
knots
Gust
knots
hPa Trend Height
m
Period
s
Dir
01/07:00pm 25.2 N 10 13 1011.7 - 0.0 - - - - - - -
01/06:30pm 25.2 N 8 15 1012.0 - 0.0 - - - - - - -
01/06:00pm 25.5 N 10 15 1012.0 - 0.0 - - - - - - -
01/05:30pm 25.6 N 8 14 1012.2 - 0.0 - - - - - - -
01/05:00pm 26.0 N 9 17 1012.2 - 0.0 - - - - - - -
01/04:30pm 26.3 NNW 5 10 1012.4 - 0.0 - - - - - - -
01/04:00pm 26.2 NNW 7 20 1012.6 - 0.0 - - - - - - -
01/03:30pm 26.7 NNW 8 18 1013.0 - 0.0 - - - - - - -
01/03:00pm 26.0 NNE 6 18 1013.3 - 0.0 - - - - - - -
01/02:30pm 26.4 NE 6 17 1013.9 - 0.0 - - - - - - -
01/02:00pm 26.4 NNW 5 8 1014.5 - 0.0 - - - - - - -
01/01:30pm 25.1 N 9 17 1015.0 - 0.0 - - - - - - -
01/01:00pm 25.9 N 7 13 1015.4 - 0.0 - - - - - - -
01/12:30pm 26.8 N 9 16 1015.8 - 0.0 - - - - - - -
01/12:00pm 26.1 N 10 19 1016.2 - 0.0 - - - - - - -
01/11:30am 25.5 N 11 23 1016.8 - 0.0 - - - - - - -
01/11:00am 24.4 N 12 21 1017.3 - 0.0 - - - - - - -
01/10:30am 24.0 N 14 22 1017.5 - 0.0 - - - - - - -
01/10:00am 21.5 N 12 16 1018.0 - 0.0 - - - - - - -
01/09:30am 23.9 N 13 19 1018.1 - 0.0 - - - - - - -
01/09:00am 23.4 N 12 21 1018.2 - 0.0 - - - - - - -
01/08:30am 23.1 N 9 15 1018.2 - 0.0 - - - - - - -
01/08:00am 23.6 NNW 15 19 1018.1 - 0.0 - - - - - - -
01/07:30am 22.9 NNW 13 20 1018.2 - 0.0 - - - - - - -
01/07:00am 21.9 NNW 11 15 1018.3 - 0.0 - - - - - - -
01/06:52am 21.7 NNW 10 16 1018.4 - 0.0 - - - - - - -
01/06:30am 16.7 NNW 3 7 1018.4 - 0.0 - - - - - - -
01/06:00am 16.6 NE 6 11 1018.4 - 0.0 - - - - - - -
01/05:30am 16.3 N 8 9 1018.6 - 0.0 - - - - - - -
01/05:00am 16.4 NNE 14 17 1018.6 - 0.0 - - - - - - -
01/04:30am 16.5 NNE 13 16 1018.8 - 0.0 - - - - - - -
01/04:00am 16.6 NNE 14 17 1019.2 - 0.0 - - - - - - -
01/03:30am 16.9 NNE 14 16 1019.5 - 0.0 - - - - - - -
01/03:00am 17.0 NNE 15 18 1019.7 - 0.0 - - - - - - -
01/02:30am 17.0 NNE 15 18 1020.4 - 0.0 - - - - - - -
01/02:00am 17.0 NNE 14 18 1020.8 - 0.0 - - - - - - -
01/01:30am 17.1 NNE 15 19 1021.1 - 0.0 - - - - - - -
01/01:00am 16.8 NNE 16 19 1021.4 - 0.0 - - - - - - -
01/12:30am 16.8 NNE 17 21 1021.7 - 0.0 - - - - - - -
01/12:00am 16.8 NNE 14 19 1021.9 - 0.0 - - - - - - -
 
Date/Time
EDT
Temp

°C
Wind Pressure Rain
since 9am
mm
Weather Cloud Vis
km
Sea
Height
m
Swell
Dir
 
Speed
knots
Gust
knots
hPa Trend Height
m
Period
s
Dir
31/11:30pm 16.6 NNE 14 20 1022.4 - 0.0 - - - - - - -
31/11:00pm 16.6 NNE 14 22 1022.4 - 0.0 - - - - - - -
31/10:30pm 16.4 NNE 16 25 1022.6 - 0.0 - - - - - - -
31/10:00pm 16.4 N 17 23 1022.7 - 0.0 - - - - - - -
31/09:30pm 16.3 N 17 22 1022.8 - 0.0 - - - - - - -
31/09:00pm 16.3 N 16 22 1022.6 - 0.0 - - - - - - -
31/08:30pm 16.4 NNE 13 18 1023.0 - 0.0 - - - - - - -
31/08:00pm 16.4 NNE 12 16 1023.1 - 0.0 - - - - - - -
31/07:30pm 16.5 NNE 13 18 1022.9 - 0.0 - - - - - - -
31/07:00pm 16.6 NNE 12 16 1022.9 - 0.0 - - - - - - -
31/06:30pm 16.8 NE 11 14 1022.9 - 0.0 - - - - - - -
31/06:00pm 17.0 NE 11 12 1022.9 - 0.0 - - - - - - -
31/05:30pm 17.4 NE 11 13 1023.1 - 0.0 - - - - - - -
31/05:00pm 17.4 NE 11 13 1023.2 - 0.0 - - - - - - -
31/04:30pm 17.7 NE 10 11 1023.4 - 0.0 - - - - - - -
31/04:00pm 18.3 ENE 8 9 1023.6 - 0.0 - - - - - - -
31/03:30pm 18.2 ENE 8 10 1023.9 - 0.0 - - - - - - -
31/03:00pm 18.6 ENE 9 11 1023.7 - 0.0 - - - - - - -
31/02:30pm 18.5 NE 10 11 1024.0 - 0.0 - - - - - - -
31/02:00pm 18.8 NE 10 12 1024.3 - 0.0 - - - - - - -
31/01:30pm 18.5 NE 10 11 1024.7 - 0.0 - - - - - - -
31/01:00pm 18.6 NE 11 13 1024.9 - 0.0 - - - - - - -
31/12:30pm 18.8 NE 9 11 1025.4 - 0.0 - - - - - - -
31/12:00pm 19.0 NE 9 11 1025.6 - 0.0 - - - - - - -
31/11:30am 18.8 NE 6 8 1026.4 - 0.0 - - - - - - -
31/11:00am 19.4 NNE 7 8 1026.7 - 0.0 - - - - - - -
31/10:30am 19.2 NE 6 8 1026.8 - 0.0 - - - - - - -
31/10:00am 19.0 NNE 6 8 1026.6 - 0.0 - - - - - - -
31/09:30am 18.3 NNE 4 7 1026.6 - 0.0 - - - - - - -
31/09:00am 18.4 NNW 3 5 1026.5 - 0.0 - - - - - - -
31/08:30am 16.3 WNW 5 6 1026.4 - 0.0 - - - - - - -
31/08:00am 15.4 W 4 5 1026.1 - 0.0 - - - - - - -
31/07:30am 15.2 CALM 0 4 1025.8 - 0.0 - - - - - - -
31/07:00am 15.3 E 2 4 1025.5 - 0.0 - - - - - - -
31/06:30am 15.0 N 4 5 1025.3 - 0.0 - - - - - - -
31/06:00am 15.0 NW 4 7 1025.0 - 0.0 - - - - - - -
31/05:30am 15.1 SSE 2 5 1025.1 - 0.0 - - - - - - -
31/05:00am 15.6 WNW 1 4 1024.9 - 0.0 - - - - - - -
31/04:30am 15.4 CALM 0 6 1024.8 - 0.0 - - - - - - -
31/04:00am 15.5 WSW 5 7 1025.0 - 0.0 - - - - - - -
31/03:30am 15.4 NNW 5 8 1025.1 - 0.0 - - - - - - -
31/03:00am 14.9 NNE 3 5 1025.4 - 0.0 - - - - - - -
31/02:30am 14.9 N 5 6 1025.6 - 0.0 - - - - - - -
31/02:00am 15.1 NNW 5 7 1025.7 - 0.0 - - - - - - -
31/01:30am 15.2 N 1 5 1025.7 - 0.0 - - - - - - -
31/01:00am 14.9 CALM 0 0 1025.8 - 0.0 - - - - - - -
31/12:30am 14.7 N 5 7 1025.7 - 0.0 - - - - - - -
31/12:00am 15.0 NW 5 6 1025.8 - 0.0 - - - - - - -
 
Date/Time
EDT
Temp

°C
Wind Pressure Rain
since 9am
mm
Weather Cloud Vis
km
Sea
Height
m
Swell
Dir
 
Speed
knots
Gust
knots
hPa Trend Height
m
Period
s
Dir
30/11:30pm 15.2 WNW 7 8 1025.9 - 0.0 - - - - - - -
30/11:00pm 15.3 W 9 12 1026.0 - 0.0 - - - - - - -
30/10:30pm 15.5 W 12 16 1025.8 - 0.0 - - - - - - -
30/10:00pm 15.4 W 13 15 1025.8 - 0.0 - - - - - - -
30/09:30pm 15.5 W 11 14 1025.8 - 0.0 - - - - - - -
30/09:00pm 15.5 W 10 12 1025.6 - 0.0 - - - - - - -
30/08:30pm 15.7 WNW 11 15 1025.5 - 0.0 - - - - - - -
30/08:00pm 15.9 W 10 15 1025.1 - 0.0 - - - - - - -
30/07:30pm 15.9 WNW 11 14 1024.7 - 0.0 - - - - - - -
30/07:00pm 16.3 W 10 15 1024.4 - 0.0 - - - - - - -
30/06:30pm 16.8 W 11 17 1024.1 - 0.0 - - - - - - -
30/06:00pm 16.6 W 12 17 1023.6 - 0.0 - - - - - - -
30/05:30pm 17.1 W 15 19 1023.5 - 0.0 - - - - - - -
30/05:00pm 17.4 W 14 19 1023.3 - 0.0 - - - - - - -
30/04:30pm 17.3 W 14 19 1023.3 - 0.0 - - - - - - -
30/04:00pm 17.9 W 19 23 1023.1 - 0.0 - - - - - - -
30/03:30pm 18.9 W 14 19 1023.2 - 0.0 - - - - - - -
30/03:00pm 18.9 W 13 17 1023.1 - 0.0 - - - - - - -
30/02:30pm 18.8 W 12 18 1023.5 - 0.0 - - - - - - -
30/02:00pm 18.5 W 15 21 1023.6 - 0.0 - - - - - - -
30/01:30pm 18.8 W 14 21 1023.7 - 0.0 - - - - - - -
30/01:00pm 18.2 W 15 25 1023.8 - 0.0 - - - - - - -
30/12:54pm 18.0 W 15 25 1023.8 - 0.0 - - - - - - -
30/12:30pm 18.0 W 16 21 1023.9 - 0.0 - - - - - - -
30/12:00pm 17.9 WNW 16 22 1023.9 - 0.0 - - - - - - -
30/11:30am 17.5 W 15 21 1024.0 - 0.0 - - - - - - -
30/11:00am 17.7 W 9 17 1024.1 - 0.0 - - - - - - -
30/10:30am 17.4 W 14 20 1024.0 - 0.0 - - - - - - -
30/10:00am 17.0 WNW 13 20 1023.7 - 0.0 - - - - - - -
30/09:30am 16.6 WNW 12 19 1023.5 - 0.0 - - - - - - -
30/09:00am 16.0 WNW 15 19 1023.0 - 0.0 - - - - - - -
30/08:30am 15.5 WNW 15 22 1022.8 - 0.0 - - - - - - -
30/08:00am 15.2 NW 14 22 1022.8 - 0.0 - - - - - - -
30/07:30am 14.8 NW 15 20 1022.4 - 0.0 - - - - - - -
30/07:00am 14.8 NW 13 21 1022.3 - 0.0 - - - - - - -
30/06:30am 14.8 NW 12 21 1022.1 - 0.0 - - - - - - -
30/06:00am 14.8 NW 12 19 1021.8 - 0.0 - - - - - - -
30/05:30am 14.8 NW 13 17 1021.9 - 0.0 - - - - - - -
30/05:00am 14.7 NW 12 16 1021.8 - 0.0 - - - - - - -
30/04:30am 14.6 NW 13 17 1021.8 - 0.0 - - - - - - -
30/04:00am 14.8 NW 16 19 1021.7 - 0.0 - - - - - - -
30/03:30am 14.6 NW 13 17 1022.1 - 0.0 - - - - - - -
30/03:00am 14.9 NW 14 17 1022.1 - 0.0 - - - - - - -
30/02:30am 14.9 NW 13 18 1022.3 - 0.0 - - - - - - -
30/02:00am 15.2 WNW 11 15 1022.3 - 0.0 - - - - - - -
30/01:30am 15.3 NW 10 14 1022.5 - 0.0 - - - - - - -
30/01:00am 15.1 NW 11 14 1022.5 - 0.0 - - - - - - -
30/12:30am 15.2 NW 11 16 1022.6 - 0.0 - - - - - - -
30/12:00am 15.2 NW 8 12 1022.6 - 0.0 - - - - - - -
 
Date/Time
EDT
Temp

°C
Wind Pressure Rain
since 9am
mm
Weather Cloud Vis
km
Sea
Height
m
Swell
Dir
 
Speed
knots
Gust
knots
hPa Trend Height
m
Period
s
Dir
29/11:30pm 15.0 NW 8 11 1023.1 - 0.0 - - - - - - -
29/11:00pm 15.2 WNW 8 16 1023.1 - 0.0 - - - - - - -
29/10:30pm 15.3 W 11 18 1022.8 - 0.0 - - - - - - -
29/10:00pm 15.3 W 10 16 1022.6 - 0.0 - - - - - - -
29/09:30pm 15.4 W 11 17 1022.5 - 0.0 - - - - - - -
29/09:00pm 15.3 W 11 15 1022.0 - 0.0 - - - - - - -
29/08:30pm 15.4 W 12 18 1021.9 - 0.0 - - - - - - -
29/08:00pm 15.6 W 14 19 1021.6 - 0.0 - - - - - - -
29/07:30pm 15.7 W 15 21 1021.0 - 0.0 - - - - - - -

Other Formats:

Comma delimited format used in spreadsheet applications
http://www.bom.gov.au/fwo/IDT60701/IDT60701.94893.axf

JavaScript Object Notation format (JSON) in row-major order
http://www.bom.gov.au/fwo/IDT60701/IDT60701.94893.json